createdAt,value
2024-03-04T00:00:25.900Z,9.80
2024-03-04T00:06:06.440Z,12.40
2024-03-04T00:12:57.644Z,15.00
2024-03-04T00:16:42.363Z,15.20
2024-03-04T00:19:20.622Z,14.80
2024-03-04T00:21:48.729Z,15.50
2024-03-04T00:24:17.186Z,14.30
2024-03-04T00:26:44.880Z,16.90
2024-03-04T00:29:12.653Z,18.50
2024-03-04T00:31:40.834Z,22.40
2024-03-04T00:34:08.683Z,22.10
2024-03-04T00:36:36.353Z,21.60
2024-03-04T00:39:04.387Z,23.20
2024-03-04T00:41:32.556Z,24.20
2024-03-04T00:44:00.456Z,24.30
2024-03-04T00:46:28.387Z,22.00
2024-03-04T00:48:56.540Z,20.00
2024-03-04T00:51:24.533Z,19.80
2024-03-04T00:53:52.239Z,20.20
2024-03-04T00:56:20.413Z,23.00
2024-03-04T00:58:49.551Z,19.60
2024-03-04T01:01:17.625Z,22.20
2024-03-04T01:03:45.644Z,22.40
2024-03-04T01:06:13.371Z,21.00
2024-03-04T01:08:41.093Z,24.20
2024-03-04T01:11:09.008Z,23.60
2024-03-04T01:13:37.305Z,24.40
2024-03-04T01:16:06.466Z,24.60
2024-03-04T01:18:35.904Z,25.00
2024-03-04T01:21:05.503Z,35.50
2024-03-04T01:23:33.422Z,31.10
2024-03-04T01:26:01.957Z,29.50
2024-03-04T01:28:29.967Z,31.70
2024-03-04T01:30:57.846Z,30.20
2024-03-04T01:33:25.789Z,32.30
2024-03-04T01:35:53.516Z,35.90
2024-03-04T01:38:21.345Z,34.00
2024-03-04T01:40:49.218Z,32.40
2024-03-04T01:43:18.815Z,33.10
2024-03-04T01:45:46.600Z,34.70
2024-03-04T01:48:14.425Z,32.10
2024-03-04T01:50:45.051Z,30.50
2024-03-04T01:53:13.518Z,35.90
2024-03-04T01:55:44.497Z,35.50
2024-03-04T01:58:18.419Z,34.70
2024-03-04T02:00:49.406Z,38.90
2024-03-04T02:03:18.406Z,38.20
2024-03-04T02:05:47.086Z,36.50
2024-03-04T02:08:17.101Z,34.90
2024-03-04T02:10:45.206Z,39.30
2024-03-04T02:13:13.397Z,34.60
2024-03-04T02:15:42.132Z,42.60
2024-03-04T02:18:10.679Z,42.40
2024-03-04T02:20:39.714Z,52.20
2024-03-04T02:23:09.503Z,48.70
2024-03-04T02:25:37.481Z,48.90
2024-03-04T02:28:06.646Z,52.00
2024-03-04T02:30:35.061Z,55.60
2024-03-04T02:33:05.073Z,56.90
2024-03-04T02:35:33.891Z,55.90
2024-03-04T02:38:02.699Z,52.70
2024-03-04T02:40:30.452Z,60.50
2024-03-04T02:42:58.273Z,62.70
2024-03-04T02:45:26.209Z,60.40
2024-03-04T02:47:54.524Z,57.50
2024-03-04T02:50:22.632Z,60.30
2024-03-04T02:52:51.795Z,56.30
2024-03-04T02:55:19.634Z,57.10
2024-03-04T02:57:48.090Z,65.50
2024-03-04T03:00:18.051Z,65.10
2024-03-04T03:02:46.089Z,66.60
2024-03-04T03:05:14.025Z,60.60
2024-03-04T03:07:41.780Z,66.60
2024-03-04T03:10:11.524Z,60.40
2024-03-04T03:12:39.317Z,66.40
2024-03-04T03:15:09.091Z,69.40
2024-03-04T03:17:37.248Z,61.00
2024-03-04T03:20:19.811Z,74.00
2024-03-04T03:22:49.100Z,67.70
2024-03-04T03:25:17.051Z,58.00
2024-03-04T03:27:44.905Z,61.40
2024-03-04T03:30:15.056Z,63.10
2024-03-04T03:32:43.724Z,63.90
2024-03-04T03:35:11.520Z,73.10
2024-03-04T03:37:39.347Z,68.50
2024-03-04T03:40:11.299Z,65.40
2024-03-04T03:42:39.065Z,66.10
2024-03-04T03:45:08.900Z,63.40
2024-03-04T03:47:36.606Z,60.50
2024-03-04T03:50:06.283Z,53.30
2024-03-04T03:52:35.526Z,60.40
2024-03-04T03:55:04.469Z,57.20
2024-03-04T03:57:41.589Z,66.10
2024-03-04T04:00:20.277Z,62.30
2024-03-04T04:02:48.058Z,62.60
2024-03-04T04:05:15.958Z,52.60
2024-03-04T04:07:43.923Z,55.20
2024-03-04T04:10:11.725Z,62.70
2024-03-04T04:12:39.425Z,53.00
2024-03-04T04:15:08.391Z,61.00
2024-03-04T04:17:36.113Z,64.80
2024-03-04T04:20:07.415Z,54.90
2024-03-04T04:22:35.108Z,49.00
2024-03-04T04:25:03.107Z,51.30
2024-03-04T04:27:30.980Z,44.50
2024-03-04T04:29:59.171Z,58.60
2024-03-04T04:32:27.707Z,47.80
2024-03-04T04:34:55.334Z,48.70
2024-03-04T04:37:23.105Z,59.10
2024-03-04T04:39:51.040Z,53.90
2024-03-04T04:42:19.126Z,49.90
2024-03-04T04:44:47.234Z,54.60
2024-03-04T04:47:14.962Z,53.40
2024-03-04T04:49:42.904Z,50.90
2024-03-04T04:52:10.767Z,49.60
2024-03-04T04:54:38.468Z,47.30
2024-03-04T04:57:06.300Z,57.70
2024-03-04T04:59:33.971Z,54.10
2024-03-04T05:02:01.810Z,47.00
2024-03-04T05:04:43.797Z,49.30
2024-03-04T05:07:17.914Z,46.00
2024-03-04T05:09:45.609Z,39.60
2024-03-04T05:12:13.305Z,49.70
2024-03-04T05:14:41.153Z,43.70
2024-03-04T05:17:11.354Z,47.90
2024-03-04T05:19:39.107Z,48.20
2024-03-04T05:22:08.720Z,45.50
2024-03-04T05:24:36.449Z,39.60
2024-03-04T05:27:04.924Z,45.60
2024-03-04T05:29:32.747Z,40.50
2024-03-04T05:32:00.449Z,37.20
2024-03-04T05:34:28.642Z,35.80
2024-03-04T05:36:56.380Z,40.20
2024-03-04T05:39:24.564Z,38.20
2024-03-04T05:41:52.513Z,44.00
2024-03-04T05:44:20.599Z,40.50
2024-03-04T05:46:51.226Z,43.50
2024-03-04T05:49:19.456Z,45.00
2024-03-04T05:51:47.206Z,48.00
2024-03-04T05:54:14.913Z,53.80
2024-03-04T05:56:43.756Z,61.30
2024-03-04T05:59:11.631Z,66.50
2024-03-04T06:01:39.900Z,65.20
2024-03-04T06:04:08.432Z,55.10
2024-03-04T06:06:36.276Z,56.00
2024-03-04T06:09:05.665Z,66.40
2024-03-04T06:11:33.574Z,66.60
2024-03-04T06:14:01.887Z,63.30
2024-03-04T06:16:29.993Z,64.90
2024-03-04T06:18:57.848Z,60.80
2024-03-04T06:21:25.422Z,58.70
2024-03-04T06:23:53.969Z,60.60
2024-03-04T06:26:21.557Z,58.30
2024-03-04T06:28:49.484Z,56.80
2024-03-04T06:31:17.612Z,54.70
2024-03-04T06:33:52.567Z,57.00
2024-03-04T07:12:58.970Z,24.90
2024-03-04T07:23:14.578Z,20.00
2024-03-04T07:38:34.345Z,22.00
2024-03-04T08:17:54.808Z,26.40
2024-03-04T08:20:58.676Z,28.20
2024-03-04T08:32:15.167Z,23.30
2024-03-04T08:38:49.525Z,24.60
2024-03-04T08:50:07.721Z,28.90
2024-03-04T09:15:46.157Z,24.40
2024-03-04T09:27:22.043Z,27.90
2024-03-04T09:33:55.224Z,22.70
2024-03-04T09:37:46.820Z,28.20
2024-03-04T09:45:27.180Z,24.10
2024-03-04T10:34:25.120Z,28.50
2024-03-04T10:41:08.690Z,34.40
2024-03-04T10:54:37.482Z,29.20
2024-03-04T10:57:45.315Z,29.80
2024-03-04T11:01:22.865Z,34.50
2024-03-04T11:15:04.286Z,29.60
2024-03-04T11:24:58.419Z,27.50
2024-03-04T11:32:34.427Z,25.10
2024-03-04T11:47:36.576Z,24.50
2024-03-04T11:57:57.120Z,28.20
2024-03-04T12:12:12.482Z,22.60
2024-03-04T12:17:06.104Z,25.40
2024-03-04T12:36:29.153Z,23.70
2024-03-04T12:40:06.278Z,22.90
2024-03-04T12:50:08.470Z,19.80
2024-03-04T13:00:46.140Z,26.00
2024-03-04T13:06:42.569Z,23.20
2024-03-04T13:19:36.607Z,24.00
2024-03-04T13:35:46.065Z,27.80
2024-03-04T13:38:19.169Z,26.90
2024-03-04T13:41:14.521Z,26.50
2024-03-04T13:44:42.614Z,27.20
2024-03-04T14:01:01.997Z,24.80
2024-03-04T14:20:17.062Z,26.00
2024-03-04T14:23:01.413Z,26.40
2024-03-04T14:25:44.945Z,31.40
2024-03-04T14:28:42.547Z,27.30
2024-03-04T14:31:19.347Z,28.80
2024-03-04T14:48:34.904Z,28.10
2024-03-04T14:51:10.421Z,27.80
2024-03-04T14:54:04.247Z,29.40
2024-03-04T15:08:00.494Z,33.10
2024-03-04T15:21:05.063Z,30.60
2024-03-04T15:31:20.154Z,36.90
2024-03-04T15:34:35.855Z,33.40
2024-03-04T15:37:42.519Z,40.70
2024-03-04T15:44:22.194Z,38.10
2024-03-04T15:57:34.434Z,32.30
2024-03-04T16:07:38.852Z,29.30
2024-03-04T16:10:53.713Z,31.40
2024-03-04T16:13:36.686Z,31.00
2024-03-04T16:16:28.887Z,28.50
2024-03-04T16:19:19.454Z,32.50
2024-03-04T16:22:24.108Z,30.10
2024-03-04T16:26:00.988Z,27.60
2024-03-04T16:32:27.429Z,27.80
2024-03-04T16:35:32.869Z,28.60
2024-03-04T16:49:01.162Z,23.50
2024-03-04T16:52:16.052Z,25.30
2024-03-04T16:58:45.080Z,25.70
2024-03-04T17:02:00.990Z,25.20
2024-03-04T17:05:07.485Z,22.30
2024-03-04T17:30:09.061Z,20.20
2024-03-04T17:33:08.051Z,21.90
2024-03-04T17:36:31.533Z,24.80
2024-03-04T17:47:37.576Z,26.10
2024-03-04T17:54:06.009Z,25.50
2024-03-04T17:57:05.987Z,24.50
2024-03-04T17:59:52.738Z,28.90
2024-03-04T18:05:51.185Z,31.30
2024-03-04T18:12:20.954Z,27.30
2024-03-04T18:18:42.731Z,23.40
2024-03-04T18:21:53.262Z,25.50
2024-03-04T18:25:01.288Z,27.40
2024-03-04T18:27:59.951Z,27.90
2024-03-04T18:31:22.880Z,29.00
2024-03-04T18:34:12.120Z,26.80
2024-03-04T18:36:54.390Z,22.20
2024-03-04T18:43:26.635Z,26.30
2024-03-04T18:46:23.892Z,23.40
2024-03-04T18:50:04.226Z,25.30
2024-03-04T18:53:20.826Z,29.40
2024-03-04T18:56:29.984Z,27.50
2024-03-04T18:59:35.244Z,24.70
2024-03-04T19:02:46.198Z,27.40
2024-03-04T19:09:26.129Z,25.60
2024-03-04T19:12:38.513Z,27.20
2024-03-04T19:16:01.631Z,26.40
2024-03-04T19:19:32.120Z,31.90
2024-03-04T19:22:41.098Z,28.20
2024-03-04T19:25:59.232Z,38.40
2024-03-04T19:29:03.427Z,38.70
2024-03-04T19:32:21.287Z,35.60
2024-03-04T19:35:24.431Z,32.80
2024-03-04T19:41:16.320Z,27.50
2024-03-04T19:53:31.778Z,29.20
2024-03-04T19:56:19.662Z,30.70
2024-03-04T19:59:25.808Z,31.40
2024-03-04T20:02:45.778Z,29.70
2024-03-04T20:09:19.228Z,27.50
2024-03-04T20:12:03.584Z,28.60
2024-03-04T20:14:39.906Z,27.60
2024-03-04T20:28:01.350Z,27.10
2024-03-04T20:31:08.874Z,32.20
2024-03-04T20:34:05.151Z,29.20
2024-03-04T20:36:52.453Z,27.90
2024-03-04T20:39:32.040Z,29.70
2024-03-04T20:42:15.358Z,30.40
2024-03-04T20:45:09.846Z,31.30
2024-03-04T20:47:45.427Z,29.10
2024-03-04T20:50:24.778Z,26.40
2024-03-04T20:53:13.667Z,33.20
2024-03-04T20:55:55.778Z,31.30
2024-03-04T20:58:46.833Z,30.10
2024-03-04T21:01:43.711Z,28.70
2024-03-04T21:04:39.412Z,32.50
2024-03-04T21:07:16.490Z,29.40
2024-03-04T21:10:15.960Z,29.20
2024-03-04T21:13:09.569Z,34.10
2024-03-04T21:15:53.421Z,33.10
2024-03-04T21:26:35.700Z,37.10
2024-03-04T21:29:03.237Z,31.70
2024-03-04T21:32:29.201Z,35.20
2024-03-04T21:35:33.549Z,39.30
2024-03-04T21:45:38.507Z,36.80
2024-03-04T21:52:12.857Z,31.70
2024-03-04T21:55:19.474Z,41.20
2024-03-04T21:58:41.048Z,35.40
2024-03-04T22:02:05.215Z,39.60
2024-03-04T22:12:10.660Z,39.30
2024-03-04T22:19:03.205Z,38.00
2024-03-04T22:25:33.916Z,38.00
2024-03-04T22:32:10.142Z,34.70
2024-03-04T22:38:56.170Z,35.00
2024-03-04T22:42:12.570Z,35.50
2024-03-04T22:45:26.513Z,38.20
2024-03-04T22:51:14.634Z,33.20
2024-03-04T23:02:08.728Z,38.80
2024-03-04T23:09:33.561Z,33.30
2024-03-04T23:15:47.791Z,36.10
2024-03-04T23:19:03.469Z,32.50
2024-03-04T23:25:41.927Z,36.10
2024-03-04T23:28:53.579Z,36.00
2024-03-04T23:44:16.979Z,34.80
2024-03-04T23:47:35.634Z,32.90
2024-03-04T23:50:54.664Z,30.90
